sensor_id;sensor_type;location;lat;lon;timestamp;P1;durP1;ratioP1;P2;durP2;ratioP2
17127;SDS011;8679;50.842;4.322;2022-08-20T00:00:21;2.20;;;1.30;;
17127;SDS011;8679;50.842;4.322;2022-08-20T00:02:50;1.38;;;1.20;;
17127;SDS011;8679;50.842;4.322;2022-08-20T00:05:32;2.25;;;1.20;;
17127;SDS011;8679;50.842;4.322;2022-08-20T00:08:03;1.35;;;1.00;;
17127;SDS011;8679;50.842;4.322;2022-08-20T00:10:29;1.42;;;0.93;;
17127;SDS011;8679;50.842;4.322;2022-08-20T00:12:56;2.55;;;1.65;;
17127;SDS011;8679;50.842;4.322;2022-08-20T00:15:24;2.97;;;1.40;;
17127;SDS011;8679;50.842;4.322;2022-08-20T00:17:53;2.35;;;1.10;;
17127;SDS011;8679;50.842;4.322;2022-08-20T00:20:20;2.08;;;1.55;;
17127;SDS011;8679;50.842;4.322;2022-08-20T00:22:49;1.48;;;0.98;;
17127;SDS011;8679;50.842;4.322;2022-08-20T00:25:14;1.77;;;1.20;;
17127;SDS011;8679;50.842;4.322;2022-08-20T00:27:41;2.17;;;1.50;;
17127;SDS011;8679;50.842;4.322;2022-08-20T00:30:07;1.48;;;1.05;;
17127;SDS011;8679;50.842;4.322;2022-08-20T00:32:48;3.22;;;1.85;;
17127;SDS011;8679;50.842;4.322;2022-08-20T00:35:19;3.30;;;1.50;;
17127;SDS011;8679;50.842;4.322;2022-08-20T00:37:48;2.47;;;1.20;;
17127;SDS011;8679;50.842;4.322;2022-08-20T00:40:15;3.03;;;1.90;;
17127;SDS011;8679;50.842;4.322;2022-08-20T00:42:45;2.22;;;1.40;;
17127;SDS011;8679;50.842;4.322;2022-08-20T00:45:14;3.80;;;1.60;;
17127;SDS011;8679;50.842;4.322;2022-08-20T00:47:42;2.65;;;1.35;;
17127;SDS011;8679;50.842;4.322;2022-08-20T00:50:09;2.67;;;1.30;;
17127;SDS011;8679;50.842;4.322;2022-08-20T00:52:38;1.60;;;1.05;;
17127;SDS011;8679;50.842;4.322;2022-08-20T00:55:06;2.08;;;1.42;;
17127;SDS011;8679;50.842;4.322;2022-08-20T00:57:37;2.00;;;1.42;;
17127;SDS011;8679;50.842;4.322;2022-08-20T01:00:12;2.95;;;1.67;;
17127;SDS011;8679;50.842;4.322;2022-08-20T01:02:43;2.15;;;1.45;;
17127;SDS011;8679;50.842;4.322;2022-08-20T01:05:12;2.38;;;1.65;;
17127;SDS011;8679;50.842;4.322;2022-08-20T01:07:39;3.92;;;1.20;;
17127;SDS011;8679;50.842;4.322;2022-08-20T01:10:08;1.65;;;1.20;;
17127;SDS011;8679;50.842;4.322;2022-08-20T01:12:41;3.05;;;1.92;;
17127;SDS011;8679;50.842;4.322;2022-08-20T01:15:11;1.70;;;1.35;;
17127;SDS011;8679;50.842;4.322;2022-08-20T01:17:41;2.20;;;1.52;;
17127;SDS011;8679;50.842;4.322;2022-08-20T01:20:12;2.40;;;1.50;;
17127;SDS011;8679;50.842;4.322;2022-08-20T01:28:42;2.80;;;1.15;;
17127;SDS011;8679;50.842;4.322;2022-08-20T01:31:10;4.32;;;1.98;;
17127;SDS011;8679;50.842;4.322;2022-08-20T01:33:39;1.70;;;1.20;;
17127;SDS011;8679;50.842;4.322;2022-08-20T01:36:06;2.40;;;1.13;;
17127;SDS011;8679;50.842;4.322;2022-08-20T01:38:33;3.97;;;1.60;;
17127;SDS011;8679;50.842;4.322;2022-08-20T01:43:56;2.08;;;1.10;;
17127;SDS011;8679;50.842;4.322;2022-08-20T01:46:27;3.65;;;1.63;;
17127;SDS011;8679;50.842;4.322;2022-08-20T01:48:57;2.53;;;1.55;;
17127;SDS011;8679;50.842;4.322;2022-08-20T01:51:24;1.17;;;0.85;;
17127;SDS011;8679;50.842;4.322;2022-08-20T01:53:53;1.60;;;1.08;;
17127;SDS011;8679;50.842;4.322;2022-08-20T01:56:22;1.55;;;1.27;;
17127;SDS011;8679;50.842;4.322;2022-08-20T01:58:51;3.05;;;1.27;;
17127;SDS011;8679;50.842;4.322;2022-08-20T02:04:02;1.83;;;0.90;;
17127;SDS011;8679;50.842;4.322;2022-08-20T02:06:31;4.72;;;1.75;;
17127;SDS011;8679;50.842;4.322;2022-08-20T02:09:00;3.58;;;1.08;;
17127;SDS011;8679;50.842;4.322;2022-08-20T02:11:27;3.67;;;1.88;;
17127;SDS011;8679;50.842;4.322;2022-08-20T02:13:55;2.47;;;1.27;;
17127;SDS011;8679;50.842;4.322;2022-08-20T02:16:24;3.10;;;1.30;;
17127;SDS011;8679;50.842;4.322;2022-08-20T02:18:55;2.33;;;1.30;;
17127;SDS011;8679;50.842;4.322;2022-08-20T02:21:23;3.17;;;1.10;;
17127;SDS011;8679;50.842;4.322;2022-08-20T02:23:51;3.60;;;1.20;;
17127;SDS011;8679;50.842;4.322;2022-08-20T02:26:17;1.33;;;0.97;;
17127;SDS011;8679;50.842;4.322;2022-08-20T02:28:46;1.00;;;0.90;;
17127;SDS011;8679;50.842;4.322;2022-08-20T02:31:18;2.53;;;1.40;;
17127;SDS011;8679;50.842;4.322;2022-08-20T02:33:44;2.85;;;1.75;;
17127;SDS011;8679;50.842;4.322;2022-08-20T02:36:10;2.08;;;1.13;;
17127;SDS011;8679;50.842;4.322;2022-08-20T02:38:38;4.43;;;1.83;;
17127;SDS011;8679;50.842;4.322;2022-08-20T02:41:05;2.65;;;1.33;;
17127;SDS011;8679;50.842;4.322;2022-08-20T02:43:32;6.22;;;1.65;;
17127;SDS011;8679;50.842;4.322;2022-08-20T02:45:58;3.10;;;1.40;;
17127;SDS011;8679;50.842;4.322;2022-08-20T02:48:24;3.27;;;1.87;;
17127;SDS011;8679;50.842;4.322;2022-08-20T02:50:56;5.17;;;1.40;;
17127;SDS011;8679;50.842;4.322;2022-08-20T02:53:26;3.67;;;1.60;;
17127;SDS011;8679;50.842;4.322;2022-08-20T02:55:53;2.20;;;1.40;;
17127;SDS011;8679;50.842;4.322;2022-08-20T02:58:20;2.80;;;1.37;;
17127;SDS011;8679;50.842;4.322;2022-08-20T03:00:47;3.43;;;1.60;;
17127;SDS011;8679;50.842;4.322;2022-08-20T03:03:13;1.87;;;0.80;;
17127;SDS011;8679;50.842;4.322;2022-08-20T03:05:42;5.70;;;2.10;;
17127;SDS011;8679;50.842;4.322;2022-08-20T03:08:09;3.60;;;1.70;;
17127;SDS011;8679;50.842;4.322;2022-08-20T03:10:37;2.60;;;2.30;;
17127;SDS011;8679;50.842;4.322;2022-08-20T03:13:03;2.87;;;1.70;;
17127;SDS011;8679;50.842;4.322;2022-08-20T03:15:31;2.27;;;1.53;;
17127;SDS011;8679;50.842;4.322;2022-08-20T03:17:58;3.93;;;1.83;;
17127;SDS011;8679;50.842;4.322;2022-08-20T03:20:25;3.03;;;1.50;;
17127;SDS011;8679;50.842;4.322;2022-08-20T03:22:51;4.03;;;2.07;;
17127;SDS011;8679;50.842;4.322;2022-08-20T03:25:18;2.77;;;1.70;;
17127;SDS011;8679;50.842;4.322;2022-08-20T03:27:44;2.43;;;1.40;;
17127;SDS011;8679;50.842;4.322;2022-08-20T03:30:11;2.37;;;1.33;;
17127;SDS011;8679;50.842;4.322;2022-08-20T03:32:39;2.70;;;1.80;;
17127;SDS011;8679;50.842;4.322;2022-08-20T03:35:06;4.03;;;1.47;;
17127;SDS011;8679;50.842;4.322;2022-08-20T03:37:34;5.40;;;1.53;;
17127;SDS011;8679;50.842;4.322;2022-08-20T03:40:03;4.17;;;2.00;;
17127;SDS011;8679;50.842;4.322;2022-08-20T03:42:31;1.30;;;1.20;;
17127;SDS011;8679;50.842;4.322;2022-08-20T03:44:56;2.37;;;1.47;;
17127;SDS011;8679;50.842;4.322;2022-08-20T03:47:22;1.73;;;1.10;;
17127;SDS011;8679;50.842;4.322;2022-08-20T03:49:48;3.60;;;1.50;;
17127;SDS011;8679;50.842;4.322;2022-08-20T03:52:14;3.13;;;1.63;;
17127;SDS011;8679;50.842;4.322;2022-08-20T03:54:41;3.87;;;1.87;;
17127;SDS011;8679;50.842;4.322;2022-08-20T03:57:13;2.37;;;1.27;;
17127;SDS011;8679;50.842;4.322;2022-08-20T03:59:40;1.83;;;1.30;;
17127;SDS011;8679;50.842;4.322;2022-08-20T04:02:06;5.87;;;1.67;;
17127;SDS011;8679;50.842;4.322;2022-08-20T04:04:32;6.17;;;1.93;;
17127;SDS011;8679;50.842;4.322;2022-08-20T04:06:58;2.40;;;1.60;;
17127;SDS011;8679;50.842;4.322;2022-08-20T04:09:24;2.80;;;1.50;;
17127;SDS011;8679;50.842;4.322;2022-08-20T04:11:49;2.47;;;1.90;;
17127;SDS011;8679;50.842;4.322;2022-08-20T04:14:15;4.37;;;2.00;;
17127;SDS011;8679;50.842;4.322;2022-08-20T04:16:41;2.30;;;1.57;;
17127;SDS011;8679;50.842;4.322;2022-08-20T04:19:07;3.17;;;1.80;;
17127;SDS011;8679;50.842;4.322;2022-08-20T04:21:33;3.87;;;2.20;;
17127;SDS011;8679;50.842;4.322;2022-08-20T04:24:01;2.67;;;1.90;;
17127;SDS011;8679;50.842;4.322;2022-08-20T04:26:28;4.27;;;1.90;;
17127;SDS011;8679;50.842;4.322;2022-08-20T04:28:54;5.47;;;2.53;;
17127;SDS011;8679;50.842;4.322;2022-08-20T04:31:20;3.70;;;1.50;;
17127;SDS011;8679;50.842;4.322;2022-08-20T04:33:48;1.53;;;1.30;;
17127;SDS011;8679;50.842;4.322;2022-08-20T04:36:14;3.77;;;1.80;;
17127;SDS011;8679;50.842;4.322;2022-08-20T04:38:40;7.03;;;2.97;;
17127;SDS011;8679;50.842;4.322;2022-08-20T04:41:05;3.00;;;1.77;;
17127;SDS011;8679;50.842;4.322;2022-08-20T04:43:32;6.63;;;1.57;;
17127;SDS011;8679;50.842;4.322;2022-08-20T04:46:01;5.20;;;2.30;;
17127;SDS011;8679;50.842;4.322;2022-08-20T04:48:30;5.40;;;1.80;;
17127;SDS011;8679;50.842;4.322;2022-08-20T04:50:56;4.73;;;1.93;;
17127;SDS011;8679;50.842;4.322;2022-08-20T04:53:23;5.33;;;1.80;;
17127;SDS011;8679;50.842;4.322;2022-08-20T04:55:51;3.07;;;1.67;;
17127;SDS011;8679;50.842;4.322;2022-08-20T04:58:37;3.07;;;1.63;;
17127;SDS011;8679;50.842;4.322;2022-08-20T05:01:05;4.53;;;2.20;;
17127;SDS011;8679;50.842;4.322;2022-08-20T05:03:33;5.33;;;2.20;;
17127;SDS011;8679;50.842;4.322;2022-08-20T05:06:03;6.30;;;1.67;;
17127;SDS011;8679;50.842;4.322;2022-08-20T05:08:30;5.83;;;2.33;;
17127;SDS011;8679;50.842;4.322;2022-08-20T05:10:57;3.63;;;1.40;;
17127;SDS011;8679;50.842;4.322;2022-08-20T05:13:23;4.20;;;2.13;;
17127;SDS011;8679;50.842;4.322;2022-08-20T05:15:50;3.40;;;1.57;;
17127;SDS011;8679;50.842;4.322;2022-08-20T05:18:17;2.70;;;1.67;;
17127;SDS011;8679;50.842;4.322;2022-08-20T05:20:46;6.23;;;1.70;;
17127;SDS011;8679;50.842;4.322;2022-08-20T05:23:13;6.27;;;1.93;;
17127;SDS011;8679;50.842;4.322;2022-08-20T05:25:41;2.90;;;1.70;;
17127;SDS011;8679;50.842;4.322;2022-08-20T05:28:12;5.47;;;2.60;;
17127;SDS011;8679;50.842;4.322;2022-08-20T05:30:43;2.87;;;1.80;;
17127;SDS011;8679;50.842;4.322;2022-08-20T05:33:11;5.90;;;2.73;;
17127;SDS011;8679;50.842;4.322;2022-08-20T05:35:39;3.17;;;1.77;;
17127;SDS011;8679;50.842;4.322;2022-08-20T05:38:09;5.07;;;1.73;;
17127;SDS011;8679;50.842;4.322;2022-08-20T05:40:37;8.73;;;2.43;;
17127;SDS011;8679;50.842;4.322;2022-08-20T05:43:04;5.53;;;1.80;;
17127;SDS011;8679;50.842;4.322;2022-08-20T05:45:30;4.37;;;2.20;;
17127;SDS011;8679;50.842;4.322;2022-08-20T05:47:57;4.23;;;2.60;;
17127;SDS011;8679;50.842;4.322;2022-08-20T05:50:27;6.80;;;2.63;;
17127;SDS011;8679;50.842;4.322;2022-08-20T05:52:53;3.57;;;1.70;;
17127;SDS011;8679;50.842;4.322;2022-08-20T05:55:19;3.10;;;2.03;;
17127;SDS011;8679;50.842;4.322;2022-08-20T05:57:44;2.77;;;1.97;;
17127;SDS011;8679;50.842;4.322;2022-08-20T06:00:11;5.00;;;2.00;;
17127;SDS011;8679;50.842;4.322;2022-08-20T06:02:38;6.40;;;2.87;;
17127;SDS011;8679;50.842;4.322;2022-08-20T06:05:23;5.67;;;2.57;;
17127;SDS011;8679;50.842;4.322;2022-08-20T06:07:49;6.13;;;2.40;;
17127;SDS011;8679;50.842;4.322;2022-08-20T06:10:17;6.53;;;2.20;;
17127;SDS011;8679;50.842;4.322;2022-08-20T06:12:43;5.53;;;2.00;;
17127;SDS011;8679;50.842;4.322;2022-08-20T06:15:09;7.37;;;2.57;;
17127;SDS011;8679;50.842;4.322;2022-08-20T06:17:37;2.80;;;1.87;;
17127;SDS011;8679;50.842;4.322;2022-08-20T06:20:04;5.17;;;2.10;;
17127;SDS011;8679;50.842;4.322;2022-08-20T06:22:32;4.03;;;2.30;;
17127;SDS011;8679;50.842;4.322;2022-08-20T06:24:59;3.45;;;1.95;;
17127;SDS011;8679;50.842;4.322;2022-08-20T06:27:25;8.17;;;2.20;;
17127;SDS011;8679;50.842;4.322;2022-08-20T06:29:51;3.53;;;1.87;;
17127;SDS011;8679;50.842;4.322;2022-08-20T06:32:18;6.70;;;3.25;;
17127;SDS011;8679;50.842;4.322;2022-08-20T06:34:46;8.73;;;2.70;;
17127;SDS011;8679;50.842;4.322;2022-08-20T06:37:15;5.97;;;2.28;;
17127;SDS011;8679;50.842;4.322;2022-08-20T06:39:43;2.28;;;1.75;;
17127;SDS011;8679;50.842;4.322;2022-08-20T06:42:09;7.72;;;3.35;;
17127;SDS011;8679;50.842;4.322;2022-08-20T06:44:35;6.67;;;2.27;;
17127;SDS011;8679;50.842;4.322;2022-08-20T06:47:01;4.60;;;2.53;;
17127;SDS011;8679;50.842;4.322;2022-08-20T06:49:28;4.30;;;2.20;;
17127;SDS011;8679;50.842;4.322;2022-08-20T06:51:55;3.57;;;2.50;;
17127;SDS011;8679;50.842;4.322;2022-08-20T06:54:21;4.70;;;2.63;;
17127;SDS011;8679;50.842;4.322;2022-08-20T06:56:47;3.03;;;2.07;;
17127;SDS011;8679;50.842;4.322;2022-08-20T06:59:13;6.22;;;2.10;;
17127;SDS011;8679;50.842;4.322;2022-08-20T07:01:38;5.25;;;1.80;;
17127;SDS011;8679;50.842;4.322;2022-08-20T07:04:05;5.20;;;2.33;;
17127;SDS011;8679;50.842;4.322;2022-08-20T07:06:32;7.13;;;1.88;;
17127;SDS011;8679;50.842;4.322;2022-08-20T07:08:58;3.95;;;2.22;;
17127;SDS011;8679;50.842;4.322;2022-08-20T07:11:24;7.90;;;2.63;;
17127;SDS011;8679;50.842;4.322;2022-08-20T07:13:50;3.40;;;1.80;;
17127;SDS011;8679;50.842;4.322;2022-08-20T07:16:16;3.85;;;1.85;;
17127;SDS011;8679;50.842;4.322;2022-08-20T07:18:42;4.95;;;2.30;;
17127;SDS011;8679;50.842;4.322;2022-08-20T07:21:08;2.38;;;1.98;;
17127;SDS011;8679;50.842;4.322;2022-08-20T07:23:36;5.78;;;2.42;;
17127;SDS011;8679;50.842;4.322;2022-08-20T07:26:02;4.03;;;2.05;;
17127;SDS011;8679;50.842;4.322;2022-08-20T07:28:28;3.22;;;2.00;;
17127;SDS011;8679;50.842;4.322;2022-08-20T07:30:56;3.38;;;1.73;;
17127;SDS011;8679;50.842;4.322;2022-08-20T07:33:41;5.50;;;2.67;;
17127;SDS011;8679;50.842;4.322;2022-08-20T07:36:08;5.25;;;2.50;;
17127;SDS011;8679;50.842;4.322;2022-08-20T07:38:35;4.13;;;1.92;;
17127;SDS011;8679;50.842;4.322;2022-08-20T07:41:03;3.55;;;2.15;;
17127;SDS011;8679;50.842;4.322;2022-08-20T07:43:33;6.30;;;2.28;;
17127;SDS011;8679;50.842;4.322;2022-08-20T07:46:00;4.07;;;1.95;;
17127;SDS011;8679;50.842;4.322;2022-08-20T07:48:32;4.65;;;2.03;;
17127;SDS011;8679;50.842;4.322;2022-08-20T07:51:00;4.00;;;2.20;;
17127;SDS011;8679;50.842;4.322;2022-08-20T07:53:28;6.72;;;3.25;;
17127;SDS011;8679;50.842;4.322;2022-08-20T07:55:54;4.03;;;2.13;;
17127;SDS011;8679;50.842;4.322;2022-08-20T07:58:21;3.03;;;1.83;;
17127;SDS011;8679;50.842;4.322;2022-08-20T08:00:48;3.45;;;1.98;;
17127;SDS011;8679;50.842;4.322;2022-08-20T08:03:14;5.22;;;2.50;;
17127;SDS011;8679;50.842;4.322;2022-08-20T08:05:41;5.47;;;2.33;;
17127;SDS011;8679;50.842;4.322;2022-08-20T08:08:11;3.45;;;2.22;;
17127;SDS011;8679;50.842;4.322;2022-08-20T08:10:41;3.65;;;2.25;;
17127;SDS011;8679;50.842;4.322;2022-08-20T08:13:08;5.47;;;2.60;;
17127;SDS011;8679;50.842;4.322;2022-08-20T08:15:36;4.40;;;2.35;;
17127;SDS011;8679;50.842;4.322;2022-08-20T08:18:25;6.43;;;2.67;;
17127;SDS011;8679;50.842;4.322;2022-08-20T08:20:53;4.15;;;2.38;;
17127;SDS011;8679;50.842;4.322;2022-08-20T08:23:20;4.95;;;2.08;;
17127;SDS011;8679;50.842;4.322;2022-08-20T08:25:49;13.90;;;2.63;;
17127;SDS011;8679;50.842;4.322;2022-08-20T08:28:18;3.40;;;2.58;;
17127;SDS011;8679;50.842;4.322;2022-08-20T08:30:44;4.47;;;2.22;;
17127;SDS011;8679;50.842;4.322;2022-08-20T08:33:47;3.20;;;1.88;;
17127;SDS011;8679;50.842;4.322;2022-08-20T08:36:07;2.95;;;2.13;;
17127;SDS011;8679;50.842;4.322;2022-08-20T08:38:35;8.07;;;2.67;;
17127;SDS011;8679;50.842;4.322;2022-08-20T08:41:04;2.00;;;1.80;;
17127;SDS011;8679;50.842;4.322;2022-08-20T08:43:44;3.15;;;2.05;;
17127;SDS011;8679;50.842;4.322;2022-08-20T08:46:12;2.15;;;1.33;;
17127;SDS011;8679;50.842;4.322;2022-08-20T08:48:45;3.25;;;1.50;;
17127;SDS011;8679;50.842;4.322;2022-08-20T08:51:14;2.28;;;1.85;;
17127;SDS011;8679;50.842;4.322;2022-08-20T08:53:48;4.63;;;1.40;;
17127;SDS011;8679;50.842;4.322;2022-08-20T08:56:19;1.83;;;1.35;;
17127;SDS011;8679;50.842;4.322;2022-08-20T08:58:48;2.28;;;1.40;;
17127;SDS011;8679;50.842;4.322;2022-08-20T09:01:15;2.08;;;1.70;;
17127;SDS011;8679;50.842;4.322;2022-08-20T09:03:43;2.00;;;1.80;;
17127;SDS011;8679;50.842;4.322;2022-08-20T09:06:15;1.95;;;1.50;;
17127;SDS011;8679;50.842;4.322;2022-08-20T09:08:51;2.92;;;1.85;;
17127;SDS011;8679;50.842;4.322;2022-08-20T09:11:21;1.80;;;1.23;;
17127;SDS011;8679;50.842;4.322;2022-08-20T09:13:48;1.33;;;0.80;;
17127;SDS011;8679;50.842;4.322;2022-08-20T09:16:14;1.40;;;0.98;;
17127;SDS011;8679;50.842;4.322;2022-08-20T09:18:40;1.05;;;0.95;;
17127;SDS011;8679;50.842;4.322;2022-08-20T09:21:06;3.05;;;1.40;;
17127;SDS011;8679;50.842;4.322;2022-08-20T09:23:33;1.70;;;1.13;;
17127;SDS011;8679;50.842;4.322;2022-08-20T09:25:59;2.58;;;0.98;;
17127;SDS011;8679;50.842;4.322;2022-08-20T09:28:25;3.25;;;0.90;;
17127;SDS011;8679;50.842;4.322;2022-08-20T09:30:51;1.48;;;0.85;;
17127;SDS011;8679;50.842;4.322;2022-08-20T09:33:17;1.95;;;0.80;;
17127;SDS011;8679;50.842;4.322;2022-08-20T09:35:42;1.00;;;0.65;;
17127;SDS011;8679;50.842;4.322;2022-08-20T09:38:10;1.02;;;0.68;;
17127;SDS011;8679;50.842;4.322;2022-08-20T09:40:37;1.70;;;0.85;;
17127;SDS011;8679;50.842;4.322;2022-08-20T09:43:06;2.72;;;0.63;;
17127;SDS011;8679;50.842;4.322;2022-08-20T09:45:32;2.47;;;0.80;;
17127;SDS011;8679;50.842;4.322;2022-08-20T09:47:58;0.52;;;0.40;;
17127;SDS011;8679;50.842;4.322;2022-08-20T09:50:25;3.72;;;0.85;;
17127;SDS011;8679;50.842;4.322;2022-08-20T09:52:52;1.30;;;0.57;;
17127;SDS011;8679;50.842;4.322;2022-08-20T09:55:21;1.63;;;0.70;;
17127;SDS011;8679;50.842;4.322;2022-08-20T09:58:02;2.25;;;0.60;;
17127;SDS011;8679;50.842;4.322;2022-08-20T10:00:31;1.50;;;0.60;;
17127;SDS011;8679;50.842;4.322;2022-08-20T10:02:56;0.60;;;0.40;;
17127;SDS011;8679;50.842;4.322;2022-08-20T10:05:24;1.88;;;0.70;;
17127;SDS011;8679;50.842;4.322;2022-08-20T10:07:50;0.80;;;0.60;;
17127;SDS011;8679;50.842;4.322;2022-08-20T10:10:16;0.73;;;0.30;;
17127;SDS011;8679;50.842;4.322;2022-08-20T10:12:41;2.78;;;0.95;;
17127;SDS011;8679;50.842;4.322;2022-08-20T10:15:07;1.92;;;0.80;;
17127;SDS011;8679;50.842;4.322;2022-08-20T10:17:41;1.50;;;0.85;;
17127;SDS011;8679;50.842;4.322;2022-08-20T10:20:08;1.63;;;1.17;;
17127;SDS011;8679;50.842;4.322;2022-08-20T10:22:35;2.35;;;0.80;;
17127;SDS011;8679;50.842;4.322;2022-08-20T10:25:01;1.48;;;1.00;;
17127;SDS011;8679;50.842;4.322;2022-08-20T10:27:27;3.10;;;0.68;;
17127;SDS011;8679;50.842;4.322;2022-08-20T10:29:53;1.27;;;0.63;;
17127;SDS011;8679;50.842;4.322;2022-08-20T10:32:19;3.15;;;0.90;;
17127;SDS011;8679;50.842;4.322;2022-08-20T10:34:45;1.70;;;0.85;;
17127;SDS011;8679;50.842;4.322;2022-08-20T10:37:15;1.77;;;1.00;;
17127;SDS011;8679;50.842;4.322;2022-08-20T10:39:43;0.80;;;0.50;;
17127;SDS011;8679;50.842;4.322;2022-08-20T10:42:10;0.90;;;0.60;;
17127;SDS011;8679;50.842;4.322;2022-08-20T10:44:37;1.13;;;0.50;;
17127;SDS011;8679;50.842;4.322;2022-08-20T10:47:12;3.47;;;0.63;;
17127;SDS011;8679;50.842;4.322;2022-08-20T10:49:52;0.90;;;0.70;;
17127;SDS011;8679;50.842;4.322;2022-08-20T10:52:21;2.63;;;0.98;;
17127;SDS011;8679;50.842;4.322;2022-08-20T10:54:47;1.55;;;0.90;;
17127;SDS011;8679;50.842;4.322;2022-08-20T10:57:22;1.05;;;0.60;;
17127;SDS011;8679;50.842;4.322;2022-08-20T10:59:50;1.45;;;0.82;;
17127;SDS011;8679;50.842;4.322;2022-08-20T11:02:18;1.35;;;0.80;;
17127;SDS011;8679;50.842;4.322;2022-08-20T11:04:44;1.48;;;0.65;;
17127;SDS011;8679;50.842;4.322;2022-08-20T11:07:15;0.57;;;0.50;;
17127;SDS011;8679;50.842;4.322;2022-08-20T11:09:48;0.93;;;0.52;;
17127;SDS011;8679;50.842;4.322;2022-08-20T11:12:14;1.13;;;0.63;;
17127;SDS011;8679;50.842;4.322;2022-08-20T11:14:42;1.45;;;0.85;;
17127;SDS011;8679;50.842;4.322;2022-08-20T11:17:08;1.75;;;0.60;;
17127;SDS011;8679;50.842;4.322;2022-08-20T11:19:38;1.38;;;0.98;;
17127;SDS011;8679;50.842;4.322;2022-08-20T11:22:08;2.55;;;0.75;;
17127;SDS011;8679;50.842;4.322;2022-08-20T11:24:35;1.10;;;0.50;;
17127;SDS011;8679;50.842;4.322;2022-08-20T11:27:02;3.22;;;1.02;;
17127;SDS011;8679;50.842;4.322;2022-08-20T11:29:29;0.90;;;0.57;;
17127;SDS011;8679;50.842;4.322;2022-08-20T11:31:55;2.05;;;0.70;;
17127;SDS011;8679;50.842;4.322;2022-08-20T11:34:20;2.58;;;0.70;;
17127;SDS011;8679;50.842;4.322;2022-08-20T11:36:46;1.95;;;0.80;;
17127;SDS011;8679;50.842;4.322;2022-08-20T11:39:13;3.30;;;1.13;;
17127;SDS011;8679;50.842;4.322;2022-08-20T11:41:39;2.28;;;0.93;;
17127;SDS011;8679;50.842;4.322;2022-08-20T11:44:04;1.08;;;0.55;;
17127;SDS011;8679;50.842;4.322;2022-08-20T11:46:30;2.72;;;1.25;;
17127;SDS011;8679;50.842;4.322;2022-08-20T11:48:59;1.17;;;0.50;;
17127;SDS011;8679;50.842;4.322;2022-08-20T11:51:26;2.88;;;1.20;;
17127;SDS011;8679;50.842;4.322;2022-08-20T11:53:51;1.23;;;0.70;;
17127;SDS011;8679;50.842;4.322;2022-08-20T11:56:17;1.95;;;0.77;;
17127;SDS011;8679;50.842;4.322;2022-08-20T11:58:44;1.20;;;0.52;;
17127;SDS011;8679;50.842;4.322;2022-08-20T12:01:10;1.70;;;0.80;;
17127;SDS011;8679;50.842;4.322;2022-08-20T12:03:36;1.70;;;0.70;;
17127;SDS011;8679;50.842;4.322;2022-08-20T12:06:02;1.08;;;0.50;;
17127;SDS011;8679;50.842;4.322;2022-08-20T12:08:28;0.90;;;0.30;;
17127;SDS011;8679;50.842;4.322;2022-08-20T12:10:55;0.70;;;0.57;;
17127;SDS011;8679;50.842;4.322;2022-08-20T12:13:22;0.98;;;0.50;;
17127;SDS011;8679;50.842;4.322;2022-08-20T12:15:48;3.42;;;0.45;;
17127;SDS011;8679;50.842;4.322;2022-08-20T12:18:14;0.77;;;0.68;;
17127;SDS011;8679;50.842;4.322;2022-08-20T12:20:40;2.90;;;0.90;;
17127;SDS011;8679;50.842;4.322;2022-08-20T12:23:05;0.50;;;0.40;;
17127;SDS011;8679;50.842;4.322;2022-08-20T12:25:31;2.13;;;0.50;;
17127;SDS011;8679;50.842;4.322;2022-08-20T12:27:57;1.88;;;0.70;;
17127;SDS011;8679;50.842;4.322;2022-08-20T12:30:23;1.25;;;0.50;;
17127;SDS011;8679;50.842;4.322;2022-08-20T12:32:49;0.80;;;0.40;;
17127;SDS011;8679;50.842;4.322;2022-08-20T12:35:16;1.73;;;0.60;;
17127;SDS011;8679;50.842;4.322;2022-08-20T12:37:43;1.30;;;0.40;;
17127;SDS011;8679;50.842;4.322;2022-08-20T12:40:14;3.17;;;0.70;;
17127;SDS011;8679;50.842;4.322;2022-08-20T12:42:42;1.15;;;0.55;;
17127;SDS011;8679;50.842;4.322;2022-08-20T12:45:08;0.50;;;0.43;;
17127;SDS011;8679;50.842;4.322;2022-08-20T12:47:36;2.78;;;0.45;;
17127;SDS011;8679;50.842;4.322;2022-08-20T12:50:05;0.90;;;0.50;;
17127;SDS011;8679;50.842;4.322;2022-08-20T12:52:33;0.77;;;0.65;;
17127;SDS011;8679;50.842;4.322;2022-08-20T12:54:59;0.98;;;0.38;;
17127;SDS011;8679;50.842;4.322;2022-08-20T12:59:53;0.75;;;0.40;;
17127;SDS011;8679;50.842;4.322;2022-08-20T13:02:23;1.38;;;0.40;;
17127;SDS011;8679;50.842;4.322;2022-08-20T13:04:49;0.47;;;0.40;;
17127;SDS011;8679;50.842;4.322;2022-08-20T13:07:15;2.08;;;0.40;;
17127;SDS011;8679;50.842;4.322;2022-08-20T13:09:41;0.73;;;0.50;;
17127;SDS011;8679;50.842;4.322;2022-08-20T13:12:08;1.10;;;0.50;;
17127;SDS011;8679;50.842;4.322;2022-08-20T13:14:35;2.35;;;0.45;;
17127;SDS011;8679;50.842;4.322;2022-08-20T13:17:02;1.23;;;0.70;;
17127;SDS011;8679;50.842;4.322;2022-08-20T13:19:28;0.85;;;0.57;;
17127;SDS011;8679;50.842;4.322;2022-08-20T13:21:55;0.70;;;0.50;;
17127;SDS011;8679;50.842;4.322;2022-08-20T13:24:21;0.35;;;0.30;;
17127;SDS011;8679;50.842;4.322;2022-08-20T13:26:47;0.90;;;0.50;;
17127;SDS011;8679;50.842;4.322;2022-08-20T13:29:14;1.45;;;0.60;;
17127;SDS011;8679;50.842;4.322;2022-08-20T13:31:40;0.65;;;0.45;;
17127;SDS011;8679;50.842;4.322;2022-08-20T13:34:06;1.27;;;0.40;;
17127;SDS011;8679;50.842;4.322;2022-08-20T13:36:32;1.48;;;0.60;;
17127;SDS011;8679;50.842;4.322;2022-08-20T13:38:59;1.45;;;0.60;;
17127;SDS011;8679;50.842;4.322;2022-08-20T13:41:25;2.70;;;0.70;;
17127;SDS011;8679;50.842;4.322;2022-08-20T13:43:51;1.13;;;0.35;;
17127;SDS011;8679;50.842;4.322;2022-08-20T13:46:17;0.90;;;0.40;;
17127;SDS011;8679;50.842;4.322;2022-08-20T13:48:43;0.73;;;0.40;;
17127;SDS011;8679;50.842;4.322;2022-08-20T13:51:09;0.40;;;0.40;;
17127;SDS011;8679;50.842;4.322;2022-08-20T13:53:34;0.45;;;0.30;;
17127;SDS011;8679;50.842;4.322;2022-08-20T13:56:00;1.05;;;0.70;;
17127;SDS011;8679;50.842;4.322;2022-08-20T13:58:26;1.02;;;0.45;;
17127;SDS011;8679;50.842;4.322;2022-08-20T14:00:51;1.13;;;0.52;;
17127;SDS011;8679;50.842;4.322;2022-08-20T14:03:17;1.30;;;0.43;;
17127;SDS011;8679;50.842;4.322;2022-08-20T14:05:43;1.10;;;0.40;;
17127;SDS011;8679;50.842;4.322;2022-08-20T14:08:10;1.30;;;0.40;;
17127;SDS011;8679;50.842;4.322;2022-08-20T14:10:38;0.45;;;0.30;;
17127;SDS011;8679;50.842;4.322;2022-08-20T14:13:04;0.95;;;0.50;;
17127;SDS011;8679;50.842;4.322;2022-08-20T14:15:31;0.60;;;0.40;;
17127;SDS011;8679;50.842;4.322;2022-08-20T14:17:58;1.58;;;0.60;;
17127;SDS011;8679;50.842;4.322;2022-08-20T14:20:28;3.42;;;1.10;;
17127;SDS011;8679;50.842;4.322;2022-08-20T14:22:56;0.82;;;0.52;;
17127;SDS011;8679;50.842;4.322;2022-08-20T14:25:22;1.50;;;0.65;;
17127;SDS011;8679;50.842;4.322;2022-08-20T14:27:49;2.50;;;0.60;;
17127;SDS011;8679;50.842;4.322;2022-08-20T14:30:18;0.70;;;0.30;;
17127;SDS011;8679;50.842;4.322;2022-08-20T14:32:48;1.00;;;0.50;;
17127;SDS011;8679;50.842;4.322;2022-08-20T14:35:14;0.82;;;0.40;;
17127;SDS011;8679;50.842;4.322;2022-08-20T14:37:42;0.50;;;0.30;;
17127;SDS011;8679;50.842;4.322;2022-08-20T14:40:12;1.35;;;0.50;;
17127;SDS011;8679;50.842;4.322;2022-08-20T14:42:40;1.58;;;0.70;;
17127;SDS011;8679;50.842;4.322;2022-08-20T14:45:06;0.43;;;0.32;;
17127;SDS011;8679;50.842;4.322;2022-08-20T14:47:36;0.88;;;0.47;;
17127;SDS011;8679;50.842;4.322;2022-08-20T14:50:05;1.88;;;1.05;;
17127;SDS011;8679;50.842;4.322;2022-08-20T14:52:33;0.65;;;0.50;;
17127;SDS011;8679;50.842;4.322;2022-08-20T14:55:03;1.92;;;0.82;;
17127;SDS011;8679;50.842;4.322;2022-08-20T14:57:32;2.92;;;1.25;;
17127;SDS011;8679;50.842;4.322;2022-08-20T14:59:58;0.75;;;0.43;;
17127;SDS011;8679;50.842;4.322;2022-08-20T15:02:23;1.85;;;0.68;;
17127;SDS011;8679;50.842;4.322;2022-08-20T15:04:49;3.55;;;1.42;;
17127;SDS011;8679;50.842;4.322;2022-08-20T15:07:24;4.13;;;0.90;;
17127;SDS011;8679;50.842;4.322;2022-08-20T15:09:52;1.77;;;0.50;;
17127;SDS011;8679;50.842;4.322;2022-08-20T15:12:18;1.10;;;0.70;;
17127;SDS011;8679;50.842;4.322;2022-08-20T15:14:44;0.68;;;0.40;;
17127;SDS011;8679;50.842;4.322;2022-08-20T15:17:11;1.08;;;0.50;;